Time;durP1;ratioP1;P1;durP2;ratioP2;P2;SDS_P1;SDS_P2;PMS_P1;PMS_P2;Temp;Humidity;BMP_temperature;BMP_pressure;BME280_temperature;BME280_humidity;BME280_pressure;Samples;Min_cycle;Max_cycle;Signal;HPM_P1;HPM_P2
2022/06/29 00:01:56;;;;;;;12.37;6.42;;;;;;;18.74;81.51;100941.30;3686002;78;98695;-79
2022/06/29 00:06:57;;;;;;;8.88;5.45;;;;;;;18.79;81.61;100931.67;3651139;78;99260;-80
2022/06/29 00:11:58;;;;;;;8.00;5.40;;;;;;;18.75;81.47;100917.78;3684141;78;99227;-80
2022/06/29 00:16:59;;;;;;;9.20;5.15;;;;;;;18.71;81.51;100912.08;3676617;78;98861;-80
2022/06/29 00:22:00;;;;;;;9.33;5.92;;;;;;;18.66;81.81;100900.80;3681402;78;32755;-81
2022/06/29 00:27:02;;;;;;;10.50;6.37;;;;;;;18.65;81.77;100891.45;3679234;79;98852;-80
2022/06/29 00:32:05;;;;;;;11.18;6.85;;;;;;;18.56;81.62;100884.20;3684704;78;98783;-81
2022/06/29 00:37:06;;;;;;;9.83;6.42;;;;;;;18.49;81.99;100880.94;3675524;78;99070;-80
2022/06/29 00:42:07;;;;;;;11.15;7.50;;;;;;;18.48;82.17;100878.56;3689138;78;98758;-81
2022/06/29 00:47:08;;;;;;;11.28;6.50;;;;;;;18.38;81.97;100885.86;3676172;78;99256;-80
2022/06/29 00:52:12;;;;;;;8.75;5.85;;;;;;;18.33;82.15;100884.14;3642893;79;30857;-80
2022/06/29 00:57:18;;;;;;;10.82;6.67;;;;;;;18.28;82.18;100867.26;3648069;79;98864;-81
2022/06/29 01:02:23;;;;;;;9.05;6.12;;;;;;;18.22;82.11;100862.55;3647862;79;99142;-81
2022/06/29 01:07:27;;;;;;;10.30;6.43;;;;;;;18.12;82.13;100866.27;3631871;79;99214;-80
2022/06/29 01:12:29;;;;;;;8.40;6.03;;;;;;;18.03;82.38;100873.73;3623183;79;99136;-80
2022/06/29 01:17:30;;;;;;;9.35;5.67;;;;;;;17.99;82.89;100870.19;3636210;79;98847;-80
2022/06/29 01:22:31;;;;;;;9.53;6.08;;;;;;;17.95;82.85;100863.90;3651180;79;98801;-80
2022/06/29 01:27:32;;;;;;;9.48;6.22;;;;;;;17.92;83.16;100873.69;3646557;79;98806;-81
2022/06/29 01:32:38;;;;;;;10.70;7.20;;;;;;;17.89;82.89;100871.13;3645852;79;99023;-80
2022/06/29 01:37:38;;;;;;;10.43;6.67;;;;;;;17.88;83.54;100872.94;3640152;80;99380;-81
2022/06/29 01:42:39;;;;;;;9.98;6.17;;;;;;;17.85;83.69;100864.00;3657699;79;98937;-80
2022/06/29 01:47:40;;;;;;;9.25;6.08;;;;;;;17.83;83.53;100853.89;3650292;80;99087;-81
2022/06/29 01:52:42;;;;;;;11.10;7.05;;;;;;;17.78;83.39;100859.92;3689798;78;98770;-81
2022/06/29 01:57:42;;;;;;;9.83;6.58;;;;;;;17.74;83.76;100869.70;3680868;78;98698;-81
2022/06/29 02:02:43;;;;;;;8.28;5.28;;;;;;;17.74;83.95;100857.77;3686279;78;98607;-80
2022/06/29 02:07:44;;;;;;;10.65;6.47;;;;;;;17.73;84.08;100842.27;3688228;78;98889;-80
2022/06/29 02:12:45;;;;;;;9.98;6.47;;;;;;;17.64;83.97;100821.89;3696159;78;99442;-81
2022/06/29 02:17:46;;;;;;;12.65;6.97;;;;;;;17.54;84.05;100808.88;3684294;78;99327;-80
2022/06/29 02:22:48;;;;;;;13.43;6.72;;;;;;;17.41;84.62;100805.06;3696383;78;99764;-81
2022/06/29 02:27:49;;;;;;;11.12;7.62;;;;;;;17.22;85.16;100814.58;3666798;79;98640;-79
2022/06/29 02:38:09;;;;;;;11.85;7.95;;;;;;;17.04;85.97;100811.15;3685772;78;99126;-81
2022/06/29 02:43:10;;;;;;;13.48;8.68;;;;;;;16.98;86.25;100828.09;3695668;78;98135;-81
2022/06/29 02:48:11;;;;;;;10.85;7.80;;;;;;;16.98;87.04;100833.06;3684819;78;99007;-81
2022/06/29 02:53:12;;;;;;;11.88;8.05;;;;;;;17.02;86.77;100824.69;3777674;76;98187;-80
2022/06/29 02:58:13;;;;;;;11.63;7.95;;;;;;;16.96;86.98;100839.61;3772339;77;98794;-81
2022/06/29 03:03:15;;;;;;;11.55;7.53;;;;;;;16.99;86.93;100836.02;3788264;75;98983;-81
2022/06/29 03:08:16;;;;;;;9.28;6.50;;;;;;;16.97;87.09;100848.17;3771342;76;99157;-81
2022/06/29 03:13:17;;;;;;;10.50;7.05;;;;;;;16.99;87.13;100850.52;3774363;76;99074;-81
2022/06/29 03:18:18;;;;;;;11.95;6.85;;;;;;;16.95;87.16;100861.67;3773322;76;99026;-81
2022/06/29 03:23:19;;;;;;;10.38;6.62;;;;;;;17.03;87.18;100863.21;3777849;77;98167;-80
2022/06/29 03:28:20;;;;;;;10.23;7.20;;;;;;;17.04;87.50;100859.23;3759943;77;98716;-81
2022/06/29 03:33:24;;;;;;;9.68;6.45;;;;;;;17.14;87.43;100854.77;3793955;77;26665;-81
2022/06/29 03:38:25;;;;;;;10.53;6.85;;;;;;;17.17;87.31;100851.17;3768552;77;99089;-81
2022/06/29 03:43:26;;;;;;;9.90;6.33;;;;;;;17.19;87.09;100866.26;3786474;76;99306;-80
2022/06/29 03:48:27;;;;;;;9.78;6.95;;;;;;;17.22;86.90;100870.98;3767382;77;99313;-80
2022/06/29 03:53:28;;;;;;;11.48;6.97;;;;;;;17.22;86.94;100871.59;3790992;76;98725;-81
2022/06/29 03:58:29;;;;;;;10.43;6.25;;;;;;;17.19;87.22;100870.43;3774300;76;99144;-81
2022/06/29 04:03:30;;;;;;;9.93;5.87;;;;;;;17.28;87.43;100878.30;3802423;76;29290;-81
2022/06/29 04:08:32;;;;;;;12.43;6.17;;;;;;;17.35;87.32;100865.70;3768015;77;98677;-81
2022/06/29 04:13:33;;;;;;;12.13;6.58;;;;;;;17.32;87.60;100880.42;3785542;74;98949;-81
2022/06/29 04:18:34;;;;;;;10.32;6.28;;;;;;;17.22;87.67;100872.38;3770316;76;98765;-81
2022/06/29 04:23:35;;;;;;;11.03;6.00;;;;;;;17.25;88.20;100862.41;3785657;76;99033;-79
2022/06/29 04:28:36;;;;;;;13.13;6.35;;;;;;;17.21;87.99;100865.23;3763917;75;98898;-80
2022/06/29 04:33:37;;;;;;;11.00;5.75;;;;;;;17.29;87.86;100872.92;3782713;77;27602;-81
2022/06/29 04:38:38;;;;;;;8.40;5.20;;;;;;;17.33;87.89;100870.91;3785030;77;98626;-80
2022/06/29 04:43:39;;;;;;;9.03;5.80;;;;;;;17.31;87.80;100869.91;3783547;75;98701;-81
2022/06/29 04:48:41;;;;;;;9.63;6.07;;;;;;;17.39;88.09;100863.72;3781284;75;98364;-81
2022/06/29 04:53:46;;;;;;;9.58;6.25;;;;;;;17.41;87.77;100871.04;3791796;76;99260;-80
2022/06/29 04:58:47;;;;;;;10.45;5.78;;;;;;;17.36;87.82;100865.89;3790140;76;99314;-82
2022/06/29 05:03:48;;;;;;;9.90;5.47;;;;;;;17.41;88.18;100871.84;3793951;76;26479;-80
2022/06/29 05:08:50;;;;;;;9.37;4.50;;;;;;;17.43;88.15;100868.66;3782720;76;98872;-80
2022/06/29 05:13:51;;;;;;;12.93;5.70;;;;;;;17.51;88.19;100863.19;3795117;76;98554;-80
2022/06/29 05:18:52;;;;;;;10.17;5.47;;;;;;;17.69;88.75;100855.44;3789869;76;99174;-80
2022/06/29 05:23:53;;;;;;;9.13;5.43;;;;;;;17.93;89.05;100864.13;3785947;76;99676;-80
2022/06/29 05:28:54;;;;;;;8.10;4.47;;;;;;;18.30;88.95;100873.19;3790670;76;99251;-79
2022/06/29 05:33:56;;;;;;;10.00;4.43;;;;;;;18.95;88.60;100871.86;3792704;76;26634;-80
2022/06/29 05:38:57;;;;;;;11.78;4.06;;;;;;;19.46;85.88;100867.24;3781866;76;99284;-79
2022/06/29 05:43:58;;;;;;;7.07;4.00;;;;;;;19.84;85.47;100858.73;3795542;76;98878;-80
2022/06/29 05:48:59;;;;;;;10.90;3.80;;;;;;;20.15;83.26;100853.91;3754160;76;99369;-80
2022/06/29 05:54:01;;;;;;;9.67;4.17;;;;;;;20.29;82.19;100860.61;3747273;77;99347;-79
2022/06/29 05:59:02;;;;;;;9.57;3.87;;;;;;;20.37;80.82;100852.23;3751710;77;99135;-79
2022/06/29 06:04:03;;;;;;;8.47;3.63;;;;;;;20.49;81.04;100843.80;3757660;77;25803;-79
2022/06/29 06:09:05;;;;;;;8.57;3.97;;;;;;;20.85;81.19;100850.92;3743762;77;99119;-79
2022/06/29 06:14:06;;;;;;;7.62;3.20;;;;;;;21.12;80.33;100860.48;3723565;77;99114;-80
2022/06/29 06:19:07;;;;;;;7.00;3.33;;;;;;;21.29;79.13;100860.63;3745883;77;98556;-79
2022/06/29 06:24:08;;;;;;;7.93;3.47;;;;;;;21.36;78.19;100842.27;3769800;77;99277;-80
2022/06/29 06:29:09;;;;;;;9.37;3.60;;;;;;;21.45;77.47;100847.41;3750489;77;99243;-81
2022/06/29 06:34:10;;;;;;;8.00;3.35;;;;;;;21.51;76.78;100854.05;3771483;76;26446;-83
2022/06/29 06:39:12;;;;;;;9.40;3.47;;;;;;;21.51;76.30;100854.05;3749215;78;98501;-83
2022/06/29 06:44:13;;;;;;;5.97;4.03;;;;;;;21.55;75.63;100853.34;3762953;77;98822;-83
2022/06/29 06:49:14;;;;;;;6.22;3.20;;;;;;;21.63;75.44;100853.31;3765430;77;98555;-82
2022/06/29 06:54:15;;;;;;;7.20;2.90;;;;;;;21.67;74.76;100848.41;3769446;77;98840;-81
2022/06/29 06:59:16;;;;;;;7.05;3.02;;;;;;;21.73;74.86;100843.06;3756136;77;99295;-81
2022/06/29 07:04:17;;;;;;;6.57;2.97;;;;;;;21.98;74.85;100851.57;3758469;77;26205;-82
2022/06/29 07:09:18;;;;;;;7.55;2.85;;;;;;;22.15;74.09;100840.45;3750417;77;98480;-81
2022/06/29 07:14:19;;;;;;;9.30;4.20;;;;;;;22.03;72.93;100837.80;3758642;77;99083;-82
2022/06/29 07:19:20;;;;;;;5.90;3.08;;;;;;;22.02;72.71;100829.20;3753985;77;98460;-81
2022/06/29 07:24:21;;;;;;;6.37;2.70;;;;;;;22.11;72.83;100827.15;3756235;77;99236;-80
2022/06/29 07:29:23;;;;;;;6.03;2.37;;;;;;;22.26;72.46;100820.69;3757747;77;99262;-81
2022/06/29 07:34:24;;;;;;;7.22;2.72;;;;;;;22.21;71.79;100811.42;3764712;77;99272;-81
2022/06/29 07:39:26;;;;;;;7.08;3.20;;;;;;;22.33;72.13;100808.45;3755701;77;98402;-81
2022/06/29 07:44:30;;;;;;;4.22;2.50;;;;;;;22.44;71.83;100802.72;3764857;76;98700;-81
2022/06/29 07:49:32;;;;;;;7.12;4.00;;;;;;;22.49;71.37;100807.77;3750994;77;99169;-81
2022/06/29 07:54:33;;;;;;;6.85;3.33;;;;;;;22.46;71.01;100812.09;3794624;76;98899;-80
2022/06/29 07:59:34;;;;;;;7.05;2.70;;;;;;;22.57;70.98;100809.73;3790449;76;98552;-81
2022/06/29 08:04:35;;;;;;;6.03;2.75;;;;;;;22.60;70.87;100809.62;3814699;76;98789;-81
2022/06/29 08:09:36;;;;;;;7.25;2.85;;;;;;;22.69;70.53;100801.31;3807299;75;98389;-81
2022/06/29 08:14:37;;;;;;;6.62;2.42;;;;;;;22.85;70.21;100820.04;3781150;76;98806;-82
2022/06/29 08:19:38;;;;;;;5.25;2.55;;;;;;;22.91;70.21;100817.63;3803821;75;99047;-81
2022/06/29 08:24:40;;;;;;;6.62;2.40;;;;;;;23.01;70.33;100803.06;3808459;76;98420;-81
2022/06/29 08:29:41;;;;;;;5.03;2.30;;;;;;;23.10;69.80;100804.56;3805893;75;98690;-81
2022/06/29 08:34:42;;;;;;;6.97;3.17;;;;;;;23.00;69.27;100797.28;3799628;76;98823;-81
2022/06/29 08:39:43;;;;;;;9.45;3.42;;;;;;;23.09;69.53;100793.14;3790017;76;99023;-81
2022/06/29 08:44:44;;;;;;;8.20;2.80;;;;;;;23.16;69.36;100790.11;3797447;76;97815;-81
2022/06/29 08:49:45;;;;;;;8.38;3.33;;;;;;;23.12;68.85;100795.06;3787699;76;98743;-81
2022/06/29 08:54:48;;;;;;;8.00;3.37;;;;;;;23.06;69.19;100794.84;3773069;77;99226;-81
2022/06/29 08:59:53;;;;;;;5.30;2.77;;;;;;;23.26;70.13;100798.19;3761404;77;99111;-81
2022/06/29 09:04:54;;;;;;;9.35;2.83;;;;;;;23.49;69.73;100796.36;3762749;77;98887;-80
2022/06/29 09:10:10;;;;;;;13.75;3.35;;;;;;;23.56;68.89;100810.17;3751602;77;98406;-80
2022/06/29 09:15:12;;;;;;;9.83;3.15;;;;;;;23.61;68.50;100805.98;3757034;77;98520;-79
2022/06/29 09:20:13;;;;;;;6.45;2.77;;;;;;;23.69;68.29;100820.73;3743104;77;98563;-80
2022/06/29 09:25:27;;;;;;;10.68;3.15;;;;;;;23.78;68.04;100810.97;3749740;77;98869;-80
2022/06/29 09:30:32;;;;;;;9.83;3.02;;;;;;;23.96;67.79;100813.13;3760120;76;98628;-79
2022/06/29 09:35:35;;;;;;;4.65;2.52;;;;;;;24.11;67.74;100796.69;3757516;77;98547;-80
2022/06/29 09:40:59;;;;;;;7.22;2.90;;;;;;;24.39;67.64;100792.75;3746760;77;98831;-79
2022/06/29 09:46:01;;;;;;;7.47;2.55;;;;;;;24.66;66.38;100784.45;3759423;77;25904;-79
2022/06/29 09:56:25;;;;;;;5.80;2.45;;;;;;;25.08;64.46;100774.84;3755216;76;98641;-80
2022/06/29 10:06:48;;;;;;;3.83;2.20;;;;;;;25.61;64.19;100775.50;3756509;77;98774;-80
2022/06/29 10:17:53;;;;;;;7.03;2.80;;;;;;;25.54;60.40;100773.63;3739968;77;99139;-79
2022/06/29 10:22:54;;;;;;;7.30;2.37;;;;;;;25.70;62.19;100763.43;3749202;77;98496;-80
2022/06/29 10:28:20;;;;;;;5.70;2.05;;;;;;;25.71;62.00;100762.20;3745251;77;98766;-79
2022/06/29 10:33:36;;;;;;;7.47;2.40;;;;;;;26.28;61.79;100769.59;3753988;77;26367;-78
2022/06/29 10:39:03;;;;;;;7.72;1.98;;;;;;;27.13;61.28;100769.80;3737903;77;98986;-78
2022/06/29 10:44:05;;;;;;;7.53;1.98;;;;;;;27.56;59.06;100764.89;3751294;78;98366;-79
2022/06/29 10:49:21;;;;;;;6.40;1.80;;;;;;;28.26;56.32;100763.87;3744352;77;98732;-78
2022/06/29 10:54:29;;;;;;;6.47;2.40;;;;;;;28.51;55.92;100752.73;3774402;76;98784;-80
2022/06/29 10:59:37;;;;;;;6.30;2.00;;;;;;;28.88;55.08;100743.85;3788226;76;99130;-79
2022/06/29 11:04:40;;;;;;;4.67;1.98;;;;;;;29.02;52.62;100721.79;3795979;76;98837;-79
2022/06/29 11:15:39;;;;;;;3.90;2.15;;;;;;;29.52;51.11;100706.12;3793259;76;98545;-79
2022/06/29 11:20:20;;;;;;;7.60;2.12;;;;;;;29.98;51.85;100694.71;3761648;77;99033;-78
2022/06/29 11:25:21;;;;;;;5.80;1.40;;;;;;;30.82;50.96;100689.09;3805030;76;97929;-80
2022/06/29 11:30:23;;;;;;;4.70;1.80;;;;;;;30.94;46.73;100683.63;3783534;76;98746;-77
2022/06/29 11:35:26;;;;;;;4.65;1.60;;;;;;;31.17;47.08;100677.47;3789461;76;98741;-79
2022/06/29 11:40:41;;;;;;;3.73;1.60;;;;;;;31.30;45.96;100679.23;3775944;76;98746;-79
2022/06/29 11:45:47;;;;;;;;;;;;;;;31.64;46.08;100675.15;3797310;76;25969;-79
2022/06/29 11:50:54;;;;;;;3.42;1.50;;;;;;;32.08;44.64;100673.75;3789904;76;84855;-79
2022/06/29 11:55:57;;;;;;;2.50;1.40;;;;;;;32.39;43.51;100674.91;3781774;77;99076;-78
2022/06/29 12:00:59;;;;;;;3.25;1.27;;;;;;;32.21;42.38;100661.83;3763204;77;99223;-78
2022/06/29 12:06:00;;;;;;;3.22;1.60;;;;;;;32.67;42.65;100653.44;3777345;77;99207;-77
2022/06/29 12:11:01;;;;;;;2.52;1.32;;;;;;;32.98;41.16;100658.14;3765373;77;98722;-77
2022/06/29 12:16:03;;;;;;;4.08;1.45;;;;;;;33.14;38.20;100675.04;3778975;77;33541;-78
2022/06/29 12:21:04;;;;;;;2.05;1.20;;;;;;;33.07;39.75;100665.62;3761942;77;98601;-78
2022/06/29 12:26:06;;;;;;;2.65;1.25;;;;;;;32.87;38.93;100668.17;3775208;77;97863;-77
2022/06/29 12:31:07;;;;;;;3.30;1.25;;;;;;;33.16;39.01;100654.67;3768288;76;99082;-78
2022/06/29 12:36:09;;;;;;;2.33;1.10;;;;;;;33.78;36.50;100655.19;3781707;77;99069;-78
2022/06/29 12:41:10;;;;;;;3.37;1.60;;;;;;;33.52;38.58;100667.67;3770986;77;99298;-78
2022/06/29 12:46:11;;;;;;;4.20;1.32;;;;;;;34.07;37.87;100670.78;3766980;77;32918;-78
2022/06/29 12:51:12;;;;;;;2.20;1.40;;;;;;;34.02;37.05;100680.17;3766416;77;98602;-78
2022/06/29 12:56:14;;;;;;;3.10;1.52;;;;;;;34.31;35.53;100679.39;3784275;76;98952;-78
2022/06/29 13:01:15;;;;;;;4.05;1.50;;;;;;;34.50;36.79;100681.00;3779999;76;98626;-78
2022/06/29 13:06:16;;;;;;;4.12;1.77;;;;;;;34.76;36.19;100674.11;3795067;76;97994;-78
2022/06/29 13:11:17;;;;;;;2.20;1.52;;;;;;;35.14;36.93;100669.21;3787073;76;99173;-78
2022/06/29 13:16:18;;;;;;;2.25;1.60;;;;;;;34.89;33.93;100667.07;3791465;76;32930;-79
2022/06/29 13:21:19;;;;;;;2.40;1.40;;;;;;;34.49;34.38;100672.31;3791843;75;98855;-79
2022/06/29 13:26:21;;;;;;;2.10;1.40;;;;;;;34.41;35.82;100671.37;3792302;76;99054;-79
2022/06/29 13:31:22;;;;;;;4.20;1.37;;;;;;;34.55;35.88;100667.98;3782481;75;99228;-79
2022/06/29 13:36:23;;;;;;;4.65;1.70;;;;;;;34.65;36.30;100667.73;3784866;76;99191;-79
2022/06/29 13:41:24;;;;;;;2.90;1.37;;;;;;;34.19;34.22;100663.00;3785775;76;98880;-79
2022/06/29 13:46:24;;;;;;;5.12;1.75;;;;;;;33.45;34.61;100635.44;3786704;76;98945;-78
2022/06/29 13:51:26;;;;;;;3.40;1.45;;;;;;;33.45;34.61;100635.44;3776481;76;98369;-79
2022/06/29 13:56:27;;;;;;;5.80;1.60;;;;;;;33.35;35.38;100659.12;3747826;77;98743;-79
2022/06/29 14:01:29;;;;;;;3.45;1.50;;;;;;;33.29;35.92;100656.97;3751050;77;99240;-79
2022/06/29 14:06:30;;;;;;;3.92;1.72;;;;;;;32.86;36.86;100645.89;3754686;77;99141;-78
2022/06/29 14:11:33;;;;;;;3.47;2.37;;;;;;;32.97;36.75;100630.14;3706209;78;98754;-79
2022/06/29 14:16:33;;;;;;;2.40;1.30;;;;;;;33.00;36.96;100623.37;3750844;77;98876;-79
2022/06/29 14:21:35;;;;;;;3.67;1.70;;;;;;;32.85;36.76;100622.95;3754864;77;26529;-79
2022/06/29 14:26:35;;;;;;;3.03;1.73;;;;;;;32.52;37.41;100613.09;3747101;77;98745;-79
2022/06/29 14:31:37;;;;;;;2.80;1.60;;;;;;;32.57;36.88;100601.66;3753179;77;98691;-79
2022/06/29 14:36:38;;;;;;;3.03;1.80;;;;;;;31.91;36.57;100587.58;3749179;77;98850;-80
2022/06/29 14:41:39;;;;;;;2.17;1.75;;;;;;;31.91;36.80;100570.50;3755315;76;98599;-80
2022/06/29 14:46:40;;;;;;;4.45;1.62;;;;;;;31.78;37.60;100556.67;3752732;76;98899;-79
2022/06/29 14:51:56;;;;;;;3.37;2.12;;;;;;;31.76;37.86;100547.22;3757584;77;31698;-79
2022/06/29 14:56:57;;;;;;;4.92;1.82;;;;;;;31.85;37.25;100545.53;3752411;76;98707;-79
2022/06/29 15:02:00;;;;;;;3.70;1.75;;;;;;;31.92;38.33;100554.20;3743759;77;98717;-79
2022/06/29 15:07:02;;;;;;;4.08;2.15;;;;;;;32.08;38.57;100561.89;3746178;77;98694;-79
2022/06/29 15:12:04;;;;;;;5.35;2.20;;;;;;;32.11;38.34;100548.05;3749385;77;98710;-78
2022/06/29 15:17:06;;;;;;;4.42;2.37;;;;;;;32.01;38.30;100540.45;3742807;77;98526;-80
2022/06/29 15:22:07;;;;;;;3.42;1.80;;;;;;;31.41;37.45;100541.28;3742332;77;25758;-79
2022/06/29 15:27:08;;;;;;;5.50;2.50;;;;;;;30.99;38.43;100537.84;3745487;77;99087;-79
2022/06/29 15:32:09;;;;;;;4.08;1.92;;;;;;;31.05;38.50;100526.62;3749742;77;98673;-80
2022/06/29 15:42:22;;;;;;;4.65;2.45;;;;;;;30.42;39.06;100491.34;3663414;77;97988;-79
2022/06/29 15:47:23;;;;;;;3.92;2.10;;;;;;;30.40;39.34;100485.38;3746859;77;99018;-79
2022/06/29 15:52:24;;;;;;;6.35;2.67;;;;;;;30.17;39.65;100473.02;3756751;77;99152;-80
2022/06/29 15:57:25;;;;;;;6.47;2.90;;;;;;;30.09;39.78;100467.05;3766612;76;98858;-80
2022/06/29 16:02:26;;;;;;;4.03;2.20;;;;;;;29.93;39.83;100474.06;3766695;76;98696;-80
2022/06/29 16:07:27;;;;;;;4.85;2.40;;;;;;;29.69;40.37;100471.61;3739926;77;99241;-80
2022/06/29 16:12:28;;;;;;;3.87;2.30;;;;;;;29.38;40.28;100459.52;3755801;77;98878;-78
2022/06/29 16:17:31;;;;;;;5.03;2.90;;;;;;;29.24;40.91;100441.38;3761576;77;98488;-78
2022/06/29 16:22:33;;;;;;;5.75;2.50;;;;;;;29.16;41.50;100450.19;3760046;77;99266;-77
2022/06/29 16:27:35;;;;;;;6.70;2.50;;;;;;;29.01;41.62;100457.30;3759812;77;98863;-77
2022/06/29 16:32:36;;;;;;;5.20;2.40;;;;;;;29.01;42.23;100464.37;3797472;76;98633;-77
2022/06/29 16:37:37;;;;;;;5.25;2.95;;;;;;;28.93;42.32;100469.69;3764245;76;98990;-78
2022/06/29 16:42:38;;;;;;;5.10;2.60;;;;;;;28.83;42.25;100475.39;3767533;77;98759;-77
2022/06/29 16:47:39;;;;;;;5.17;2.83;;;;;;;28.63;41.81;100476.88;3771482;77;98851;-79
2022/06/29 16:52:40;;;;;;;4.80;2.42;;;;;;;28.13;42.03;100464.81;3757377;77;98855;-78
2022/06/29 16:57:41;;;;;;;5.45;2.60;;;;;;;27.80;42.40;100450.25;3782715;76;98852;-78
2022/06/29 17:02:42;;;;;;;3.47;1.90;;;;;;;27.49;42.80;100443.75;3811571;74;99185;-78
2022/06/29 17:07:43;;;;;;;6.95;2.50;;;;;;;27.16;42.96;100441.80;3761415;76;98812;-78
2022/06/29 17:12:45;;;;;;;4.50;2.30;;;;;;;26.92;43.34;100431.25;3787882;76;99279;-78
2022/06/29 17:17:46;;;;;;;4.15;2.37;;;;;;;26.83;43.63;100430.58;3791386;76;99169;-78
2022/06/29 17:22:48;;;;;;;6.40;2.83;;;;;;;26.68;43.93;100420.70;3785578;76;98856;-77
2022/06/29 17:27:50;;;;;;;4.08;2.22;;;;;;;26.58;44.28;100435.39;3786574;75;98711;-78
2022/06/29 17:32:51;;;;;;;4.17;2.60;;;;;;;26.46;44.80;100423.73;3787312;76;99162;-78
2022/06/29 17:37:52;;;;;;;3.42;2.20;;;;;;;26.34;45.10;100414.30;3777475;76;98984;-78
2022/06/29 17:42:53;;;;;;;8.38;2.30;;;;;;;26.27;45.67;100425.17;3785003;76;99130;-77
2022/06/29 17:47:54;;;;;;;5.72;2.58;;;;;;;26.17;45.83;100418.84;3786943;76;98831;-77
2022/06/29 17:52:55;;;;;;;5.45;2.33;;;;;;;26.11;46.30;100424.98;3792643;76;98840;-78
2022/06/29 17:57:57;;;;;;;7.25;2.90;;;;;;;26.04;46.62;100424.59;3781564;76;99005;-78
2022/06/29 18:02:58;;;;;;;5.05;2.52;;;;;;;25.88;46.73;100424.36;3782799;76;98872;-78
2022/06/29 18:07:59;;;;;;;4.17;2.30;;;;;;;25.78;47.05;100420.04;3786504;76;98801;-78
2022/06/29 18:13:00;;;;;;;4.72;1.92;;;;;;;25.75;47.52;100419.61;3795065;76;98832;-77
2022/06/29 18:18:01;;;;;;;4.95;2.80;;;;;;;25.69;48.04;100426.38;3781628;76;99218;-77
2022/06/29 18:23:02;;;;;;;5.40;2.17;;;;;;;25.53;48.66;100419.74;3788538;76;99252;-78
2022/06/29 18:28:03;;;;;;;4.17;2.65;;;;;;;25.41;49.29;100418.73;3792345;76;98732;-78
2022/06/29 18:33:05;;;;;;;5.25;2.50;;;;;;;25.28;49.67;100404.08;3784926;76;98794;-77
2022/06/29 18:38:05;;;;;;;5.65;2.47;;;;;;;25.14;50.00;100417.44;3776284;76;98914;-78
2022/06/29 18:43:07;;;;;;;4.33;2.60;;;;;;;25.01;50.39;100432.33;3788272;76;98832;-78
2022/06/29 18:48:08;;;;;;;4.08;2.47;;;;;;;24.91;51.22;100447.69;3779335;76;98742;-78
2022/06/29 18:53:09;;;;;;;4.83;2.92;;;;;;;24.82;51.78;100469.47;3790662;76;99314;-78
2022/06/29 18:58:10;;;;;;;5.65;2.67;;;;;;;24.66;51.92;100475.44;3774349;76;99088;-78
2022/06/29 19:03:12;;;;;;;4.62;2.47;;;;;;;24.54;52.83;100487.63;3793229;76;98899;-78
2022/06/29 19:08:13;;;;;;;5.17;2.92;;;;;;;24.40;53.27;100488.25;3784232;75;98782;-78
2022/06/29 19:13:14;;;;;;;6.40;3.85;;;;;;;24.24;53.77;100493.58;3787072;76;98813;-79
2022/06/29 19:18:15;;;;;;;8.18;3.90;;;;;;;24.09;54.65;100479.97;3775079;76;98775;-79
2022/06/29 19:23:16;;;;;;;8.33;3.72;;;;;;;23.95;54.99;100484.81;3760504;76;98768;-78
2022/06/29 19:28:18;;;;;;;5.95;3.15;;;;;;;23.83;55.47;100492.73;3789248;75;98885;-79
2022/06/29 19:33:21;;;;;;;4.72;2.83;;;;;;;23.70;55.77;100494.86;3785632;76;98477;-79
2022/06/29 19:38:22;;;;;;;5.72;2.80;;;;;;;23.57;56.51;100490.00;3779170;75;98760;-80
2022/06/29 19:43:25;;;;;;;7.28;3.62;;;;;;;23.45;57.00;100481.69;3793350;76;99278;-79
2022/06/29 19:48:27;;;;;;;8.25;4.22;;;;;;;23.35;57.58;100473.85;3762521;76;99297;-80
2022/06/29 19:53:28;;;;;;;9.38;4.75;;;;;;;23.26;57.73;100465.38;3768542;76;98826;-81
2022/06/29 19:58:29;;;;;;;8.27;4.50;;;;;;;23.14;58.01;100457.82;3716688;77;104243;-80
2022/06/29 20:03:30;;;;;;;8.25;3.90;;;;;;;23.05;58.69;100454.96;3710860;78;34826;-79
2022/06/29 20:08:34;;;;;;;9.00;4.35;;;;;;;22.94;58.39;100440.56;3698858;77;99023;-79
2022/06/29 20:13:36;;;;;;;8.60;3.90;;;;;;;22.82;58.63;100421.80;3708089;78;99516;-79
2022/06/29 20:18:38;;;;;;;8.15;3.50;;;;;;;22.72;59.04;100399.13;3706668;77;99263;-79
2022/06/29 20:23:40;;;;;;;8.00;4.30;;;;;;;22.59;59.15;100390.03;3705228;78;99243;-80
2022/06/29 20:28:41;;;;;;;7.95;3.20;;;;;;;22.53;59.61;100377.84;3695777;78;99294;-80
2022/06/29 20:33:42;;;;;;;8.05;3.47;;;;;;;22.45;59.65;100361.11;3715431;78;34842;-80
2022/06/29 20:38:43;;;;;;;6.78;3.55;;;;;;;22.39;60.03;100349.54;3702283;78;98824;-79
2022/06/29 20:49:04;;;;;;;7.45;3.72;;;;;;;22.23;60.85;100362.37;3701321;77;98843;-79
2022/06/29 20:54:05;;;;;;;7.47;4.10;;;;;;;22.15;61.15;100382.87;3708891;78;98936;-79
2022/06/29 20:59:07;;;;;;;7.08;3.55;;;;;;;22.12;61.44;100404.03;3772569;75;99151;-79
2022/06/29 21:04:08;;;;;;;8.03;3.87;;;;;;;22.11;61.78;100430.47;3781958;76;34958;-79
2022/06/29 21:09:09;;;;;;;7.37;3.40;;;;;;;22.09;61.95;100421.75;3784240;75;100182;-79
2022/06/29 21:14:10;;;;;;;7.58;3.90;;;;;;;22.06;62.17;100433.25;3796006;76;99142;-79
2022/06/29 21:19:11;;;;;;;10.50;3.67;;;;;;;22.07;62.47;100450.23;3779959;75;98781;-80
2022/06/29 21:24:12;;;;;;;9.98;4.33;;;;;;;22.07;62.51;100456.47;3787963;76;99039;-80
2022/06/29 21:29:13;;;;;;;7.25;3.47;;;;;;;22.04;62.57;100446.15;3771530;75;99095;-79
2022/06/29 21:34:14;;;;;;;7.78;3.58;;;;;;;21.99;62.81;100444.72;3792821;76;34910;-79
2022/06/29 21:39:16;;;;;;;7.40;3.58;;;;;;;21.97;63.37;100449.98;3782997;76;98643;-79
2022/06/29 21:44:17;;;;;;;9.80;4.28;;;;;;;21.98;63.87;100464.18;3785503;76;98727;-79
2022/06/29 21:54:37;;;;;;;10.60;4.03;;;;;;;21.91;64.62;100453.19;3773548;76;99379;-79
2022/06/29 21:59:38;;;;;;;9.23;4.30;;;;;;;21.84;65.10;100440.05;3774598;76;99102;-78
2022/06/29 22:04:39;;;;;;;7.15;3.92;;;;;;;21.79;65.22;100433.00;3785521;76;98762;-79
2022/06/29 22:09:43;;;;;;;7.80;3.98;;;;;;;21.70;65.41;100416.73;3762876;76;98502;-80
2022/06/29 22:14:44;;;;;;;8.33;4.30;;;;;;;21.65;65.90;100438.28;3790962;76;98689;-80
2022/06/29 22:19:45;;;;;;;8.10;4.15;;;;;;;21.55;66.05;100419.20;3782597;75;98960;-80
2022/06/29 22:24:46;;;;;;;6.83;3.90;;;;;;;21.46;66.34;100409.30;3792748;76;98806;-80
2022/06/29 22:29:47;;;;;;;7.58;4.03;;;;;;;21.36;66.48;100416.67;3775485;76;99725;-80
2022/06/29 22:34:48;;;;;;;8.18;4.60;;;;;;;21.27;66.92;100429.16;3777021;76;99242;-80
2022/06/29 22:39:49;;;;;;;6.15;3.45;;;;;;;21.19;66.80;100436.23;3791888;76;98769;-79
2022/06/29 22:44:50;;;;;;;7.62;4.15;;;;;;;21.03;66.51;100430.74;3794833;76;98667;-79
2022/06/29 22:49:51;;;;;;;8.05;4.05;;;;;;;20.94;66.36;100426.42;3784652;76;98594;-80
2022/06/29 22:54:52;;;;;;;6.87;3.42;;;;;;;20.82;65.83;100415.98;3786441;76;98822;-78
2022/06/29 22:59:53;;;;;;;7.55;3.15;;;;;;;20.77;65.60;100394.16;3781941;76;98822;-79
2022/06/29 23:04:54;;;;;;;7.53;3.75;;;;;;;20.72;65.40;100389.87;3790427;76;98849;-80
2022/06/29 23:09:55;;;;;;;6.53;3.45;;;;;;;20.69;65.36;100407.57;3764364;76;98790;-79
2022/06/29 23:15:08;;;;;;;9.18;3.80;;;;;;;20.67;65.34;100395.27;3792781;76;99458;-79
2022/06/29 23:20:10;;;;;;;9.10;4.10;;;;;;;20.64;65.46;100377.96;3786940;76;99019;-80
2022/06/29 23:25:11;;;;;;;8.90;4.03;;;;;;;20.61;65.96;100370.48;3782472;76;99152;-80
2022/06/29 23:30:12;;;;;;;7.45;4.00;;;;;;;20.57;66.30;100376.19;3787475;75;98872;-79
2022/06/29 23:35:13;;;;;;;8.70;4.12;;;;;;;20.53;66.60;100362.13;3791429;76;98827;-80
2022/06/29 23:40:15;;;;;;;9.78;4.37;;;;;;;20.48;67.11;100355.08;3782545;76;98631;-80
2022/06/29 23:45:16;;;;;;;7.08;4.10;;;;;;;20.46;67.58;100353.95;3789521;76;98870;-80
2022/06/29 23:50:17;;;;;;;8.48;4.42;;;;;;;20.37;67.74;100347.62;3781020;76;98666;-80
2022/06/29 23:55:18;;;;;;;9.43;3.80;;;;;;;20.33;68.13;100331.56;3786000;76;99192;-79
